Terminal Aerodrome Forecast
Issued by NWS Louisville, KY

Home | Current Version | Previous Version | Text Only | Print | Product List | Glossary On
Versions: 1 2 3 4 5 6 7 8 9 10 11 12 13 14 15 16 17 18 19 20 21 22 23 24 25 26 27 28 29 30 31 32 33 34 35 36 37 38 39 40 41 42 43 44 45 46 47 48 49 50
000
FTUS43 KLMK 171238 AAA
TAFSDF
TAF AMD
KSDF 171238Z 1713/1818 VRB07KT 4SM -SHRA VCTS BKN025CB
      TEMPO 1713/1714 2SM -TSRA BKN015CB
     FM171400 VRB05KT P6SM VCSH SCT030 BKN110
     FM171500 22009KT P6SM SCT030 BKN110
     FM172200 21010KT P6SM VCTS SCT040CB BKN100
     FM180300 18004KT P6SM VCSH BKN040
     FM180900 18006KT 5SM -SHRA VCTS BKN015CB=

USA.gov is the U.S. government's official web portal to all federal, state and local government web resources and services.